sensor_id;sensor_type;location;lat;lon;timestamp;temperature;humidity
16136;DHT22;8173;48.354;9.248;2023-07-13T00:00:47;15.30;99.90
16136;DHT22;8173;48.354;9.248;2023-07-13T00:03:14;15.30;99.90
16136;DHT22;8173;48.354;9.248;2023-07-13T00:05:42;15.40;99.90
16136;DHT22;8173;48.354;9.248;2023-07-13T00:08:09;15.40;99.90
16136;DHT22;8173;48.354;9.248;2023-07-13T00:10:39;15.40;99.90
16136;DHT22;8173;48.354;9.248;2023-07-13T00:13:07;15.40;99.90
16136;DHT22;8173;48.354;9.248;2023-07-13T00:15:34;15.30;99.90
16136;DHT22;8173;48.354;9.248;2023-07-13T00:18:01;15.40;99.90
16136;DHT22;8173;48.354;9.248;2023-07-13T00:20:27;15.40;99.90
16136;DHT22;8173;48.354;9.248;2023-07-13T00:22:56;15.50;99.90
16136;DHT22;8173;48.354;9.248;2023-07-13T00:25:22;15.60;99.90
16136;DHT22;8173;48.354;9.248;2023-07-13T00:27:51;15.40;99.90
16136;DHT22;8173;48.354;9.248;2023-07-13T00:30:18;15.40;99.90
16136;DHT22;8173;48.354;9.248;2023-07-13T00:32:45;15.40;99.90
16136;DHT22;8173;48.354;9.248;2023-07-13T00:35:14;15.30;99.90
16136;DHT22;8173;48.354;9.248;2023-07-13T00:37:41;15.30;99.90
16136;DHT22;8173;48.354;9.248;2023-07-13T00:40:11;15.30;99.90
16136;DHT22;8173;48.354;9.248;2023-07-13T00:42:38;15.20;99.90
16136;DHT22;8173;48.354;9.248;2023-07-13T00:45:07;15.20;99.90
16136;DHT22;8173;48.354;9.248;2023-07-13T00:47:34;15.20;99.90
16136;DHT22;8173;48.354;9.248;2023-07-13T00:50:02;15.20;99.90
16136;DHT22;8173;48.354;9.248;2023-07-13T00:52:30;15.10;99.90
16136;DHT22;8173;48.354;9.248;2023-07-13T00:54:58;15.00;99.90
16136;DHT22;8173;48.354;9.248;2023-07-13T00:57:27;14.90;99.90
16136;DHT22;8173;48.354;9.248;2023-07-13T00:59:55;14.80;99.90
16136;DHT22;8173;48.354;9.248;2023-07-13T01:02:24;14.70;99.90
16136;DHT22;8173;48.354;9.248;2023-07-13T01:04:51;14.60;99.90
16136;DHT22;8173;48.354;9.248;2023-07-13T01:07:18;14.50;99.90
16136;DHT22;8173;48.354;9.248;2023-07-13T01:09:45;14.60;99.90
16136;DHT22;8173;48.354;9.248;2023-07-13T01:12:12;14.50;99.90
16136;DHT22;8173;48.354;9.248;2023-07-13T01:14:40;14.50;99.90
16136;DHT22;8173;48.354;9.248;2023-07-13T01:17:09;14.30;99.90
16136;DHT22;8173;48.354;9.248;2023-07-13T01:19:38;14.30;99.90
16136;DHT22;8173;48.354;9.248;2023-07-13T01:22:09;14.30;99.90
16136;DHT22;8173;48.354;9.248;2023-07-13T01:24:37;14.30;99.90
16136;DHT22;8173;48.354;9.248;2023-07-13T01:27:06;14.30;99.90
16136;DHT22;8173;48.354;9.248;2023-07-13T01:29:34;14.30;99.90
16136;DHT22;8173;48.354;9.248;2023-07-13T01:32:08;14.20;99.90
16136;DHT22;8173;48.354;9.248;2023-07-13T01:34:35;14.10;99.90
16136;DHT22;8173;48.354;9.248;2023-07-13T01:37:03;14.10;99.90
16136;DHT22;8173;48.354;9.248;2023-07-13T01:39:31;14.00;99.90
16136;DHT22;8173;48.354;9.248;2023-07-13T01:41:58;14.00;99.90
16136;DHT22;8173;48.354;9.248;2023-07-13T01:44:25;14.00;99.90
16136;DHT22;8173;48.354;9.248;2023-07-13T01:46:52;14.00;99.90
16136;DHT22;8173;48.354;9.248;2023-07-13T01:49:19;13.90;99.90
16136;DHT22;8173;48.354;9.248;2023-07-13T01:51:45;13.80;99.90
16136;DHT22;8173;48.354;9.248;2023-07-13T01:54:12;13.70;99.90
16136;DHT22;8173;48.354;9.248;2023-07-13T01:56:40;13.70;99.90
16136;DHT22;8173;48.354;9.248;2023-07-13T01:59:07;13.60;99.90
16136;DHT22;8173;48.354;9.248;2023-07-13T02:01:34;13.60;99.90
16136;DHT22;8173;48.354;9.248;2023-07-13T02:04:00;13.60;99.90
16136;DHT22;8173;48.354;9.248;2023-07-13T02:06:27;13.60;99.90
16136;DHT22;8173;48.354;9.248;2023-07-13T02:08:54;13.70;99.90
16136;DHT22;8173;48.354;9.248;2023-07-13T02:11:21;13.80;99.90
16136;DHT22;8173;48.354;9.248;2023-07-13T02:13:49;13.80;99.90
16136;DHT22;8173;48.354;9.248;2023-07-13T02:16:16;13.80;99.90
16136;DHT22;8173;48.354;9.248;2023-07-13T02:18:43;13.70;99.90
16136;DHT22;8173;48.354;9.248;2023-07-13T02:21:09;13.70;99.90
16136;DHT22;8173;48.354;9.248;2023-07-13T02:23:36;13.60;99.90
16136;DHT22;8173;48.354;9.248;2023-07-13T02:26:03;13.60;99.90
16136;DHT22;8173;48.354;9.248;2023-07-13T02:28:30;13.70;99.90
16136;DHT22;8173;48.354;9.248;2023-07-13T02:31:06;13.60;99.90
16136;DHT22;8173;48.354;9.248;2023-07-13T02:33:32;13.60;99.90
16136;DHT22;8173;48.354;9.248;2023-07-13T02:36:00;13.60;99.90
16136;DHT22;8173;48.354;9.248;2023-07-13T02:38:27;13.60;99.90
16136;DHT22;8173;48.354;9.248;2023-07-13T02:40:54;13.60;99.90
16136;DHT22;8173;48.354;9.248;2023-07-13T02:43:20;13.60;99.90
16136;DHT22;8173;48.354;9.248;2023-07-13T02:45:47;13.50;99.90
16136;DHT22;8173;48.354;9.248;2023-07-13T02:48:15;13.50;99.90
16136;DHT22;8173;48.354;9.248;2023-07-13T02:50:44;13.30;99.90
16136;DHT22;8173;48.354;9.248;2023-07-13T02:53:11;13.30;99.90
16136;DHT22;8173;48.354;9.248;2023-07-13T02:55:37;13.20;99.90
16136;DHT22;8173;48.354;9.248;2023-07-13T02:58:06;13.20;99.90
16136;DHT22;8173;48.354;9.248;2023-07-13T03:00:33;13.10;99.90
16136;DHT22;8173;48.354;9.248;2023-07-13T03:02:59;13.10;99.90
16136;DHT22;8173;48.354;9.248;2023-07-13T03:05:27;13.10;99.90
16136;DHT22;8173;48.354;9.248;2023-07-13T03:07:54;13.00;99.90
16136;DHT22;8173;48.354;9.248;2023-07-13T03:10:21;13.00;99.90
16136;DHT22;8173;48.354;9.248;2023-07-13T03:12:48;13.00;99.90
16136;DHT22;8173;48.354;9.248;2023-07-13T03:15:15;13.00;99.90
16136;DHT22;8173;48.354;9.248;2023-07-13T03:17:41;12.90;99.90
16136;DHT22;8173;48.354;9.248;2023-07-13T03:20:08;12.90;99.90
16136;DHT22;8173;48.354;9.248;2023-07-13T03:22:37;12.90;99.90
16136;DHT22;8173;48.354;9.248;2023-07-13T03:25:04;12.80;99.90
16136;DHT22;8173;48.354;9.248;2023-07-13T03:27:31;12.70;99.90
16136;DHT22;8173;48.354;9.248;2023-07-13T03:29:58;12.70;99.90
16136;DHT22;8173;48.354;9.248;2023-07-13T03:32:24;12.70;99.90
16136;DHT22;8173;48.354;9.248;2023-07-13T03:34:51;12.50;99.90
16136;DHT22;8173;48.354;9.248;2023-07-13T03:37:18;12.40;99.90
16136;DHT22;8173;48.354;9.248;2023-07-13T03:39:46;12.40;99.90
16136;DHT22;8173;48.354;9.248;2023-07-13T03:42:13;12.30;99.90
16136;DHT22;8173;48.354;9.248;2023-07-13T03:44:40;12.30;99.90
16136;DHT22;8173;48.354;9.248;2023-07-13T03:47:07;12.30;99.90
16136;DHT22;8173;48.354;9.248;2023-07-13T03:49:35;12.50;99.90
16136;DHT22;8173;48.354;9.248;2023-07-13T03:52:01;12.40;99.90
16136;DHT22;8173;48.354;9.248;2023-07-13T03:54:28;12.40;99.90
16136;DHT22;8173;48.354;9.248;2023-07-13T03:56:56;12.40;99.90
16136;DHT22;8173;48.354;9.248;2023-07-13T03:59:23;12.30;99.90
16136;DHT22;8173;48.354;9.248;2023-07-13T04:01:49;12.40;99.90
16136;DHT22;8173;48.354;9.248;2023-07-13T04:04:16;12.40;99.90
16136;DHT22;8173;48.354;9.248;2023-07-13T04:06:43;12.40;99.90
16136;DHT22;8173;48.354;9.248;2023-07-13T04:09:10;12.50;99.90
16136;DHT22;8173;48.354;9.248;2023-07-13T04:11:36;12.70;99.90
16136;DHT22;8173;48.354;9.248;2023-07-13T04:14:04;12.70;99.90
16136;DHT22;8173;48.354;9.248;2023-07-13T04:16:31;12.70;99.90
16136;DHT22;8173;48.354;9.248;2023-07-13T04:18:58;12.80;99.90
16136;DHT22;8173;48.354;9.248;2023-07-13T04:21:26;12.70;99.90
16136;DHT22;8173;48.354;9.248;2023-07-13T04:23:53;12.70;99.90
16136;DHT22;8173;48.354;9.248;2023-07-13T04:26:20;12.60;99.90
16136;DHT22;8173;48.354;9.248;2023-07-13T04:28:48;12.60;99.90
16136;DHT22;8173;48.354;9.248;2023-07-13T04:31:16;12.60;99.90
16136;DHT22;8173;48.354;9.248;2023-07-13T04:33:43;12.60;99.90
16136;DHT22;8173;48.354;9.248;2023-07-13T04:36:10;12.70;99.90
16136;DHT22;8173;48.354;9.248;2023-07-13T04:38:36;12.80;99.90
16136;DHT22;8173;48.354;9.248;2023-07-13T04:41:05;12.90;99.90
16136;DHT22;8173;48.354;9.248;2023-07-13T04:43:33;13.00;99.90
16136;DHT22;8173;48.354;9.248;2023-07-13T04:46:03;13.20;99.90
16136;DHT22;8173;48.354;9.248;2023-07-13T04:48:32;13.00;99.90
16136;DHT22;8173;48.354;9.248;2023-07-13T04:50:59;13.00;99.90
16136;DHT22;8173;48.354;9.248;2023-07-13T04:53:27;13.00;99.90
16136;DHT22;8173;48.354;9.248;2023-07-13T04:55:54;12.90;99.90
16136;DHT22;8173;48.354;9.248;2023-07-13T04:58:21;12.90;99.90
16136;DHT22;8173;48.354;9.248;2023-07-13T05:00:48;12.90;99.90
16136;DHT22;8173;48.354;9.248;2023-07-13T05:03:15;13.00;99.90
16136;DHT22;8173;48.354;9.248;2023-07-13T05:05:43;13.00;99.90
16136;DHT22;8173;48.354;9.248;2023-07-13T05:08:10;13.10;99.90
16136;DHT22;8173;48.354;9.248;2023-07-13T05:10:36;13.10;99.90
16136;DHT22;8173;48.354;9.248;2023-07-13T05:13:03;13.20;99.90
16136;DHT22;8173;48.354;9.248;2023-07-13T05:15:30;13.30;99.90
16136;DHT22;8173;48.354;9.248;2023-07-13T05:17:57;13.30;99.90
16136;DHT22;8173;48.354;9.248;2023-07-13T05:20:23;13.40;99.90
16136;DHT22;8173;48.354;9.248;2023-07-13T05:22:51;13.40;99.90
16136;DHT22;8173;48.354;9.248;2023-07-13T05:25:18;13.50;99.90
16136;DHT22;8173;48.354;9.248;2023-07-13T05:27:45;13.40;99.90
16136;DHT22;8173;48.354;9.248;2023-07-13T05:30:13;13.40;99.90
16136;DHT22;8173;48.354;9.248;2023-07-13T05:32:40;13.40;99.90
16136;DHT22;8173;48.354;9.248;2023-07-13T05:35:07;13.50;99.90
16136;DHT22;8173;48.354;9.248;2023-07-13T05:37:34;13.60;99.90
16136;DHT22;8173;48.354;9.248;2023-07-13T05:40:03;13.60;99.90
16136;DHT22;8173;48.354;9.248;2023-07-13T05:42:29;13.80;99.90
16136;DHT22;8173;48.354;9.248;2023-07-13T05:44:57;14.00;99.90
16136;DHT22;8173;48.354;9.248;2023-07-13T05:47:24;14.10;99.90
16136;DHT22;8173;48.354;9.248;2023-07-13T05:49:51;14.30;99.90
16136;DHT22;8173;48.354;9.248;2023-07-13T05:52:17;15.20;99.90
16136;DHT22;8173;48.354;9.248;2023-07-13T05:54:44;16.50;99.90
16136;DHT22;8173;48.354;9.248;2023-07-13T05:57:12;17.20;99.90
16136;DHT22;8173;48.354;9.248;2023-07-13T05:59:39;17.20;99.90
16136;DHT22;8173;48.354;9.248;2023-07-13T06:02:08;17.70;99.90
16136;DHT22;8173;48.354;9.248;2023-07-13T06:04:35;18.40;99.90
16136;DHT22;8173;48.354;9.248;2023-07-13T06:07:02;19.30;99.90
16136;DHT22;8173;48.354;9.248;2023-07-13T06:09:29;20.10;99.90
16136;DHT22;8173;48.354;9.248;2023-07-13T06:11:56;20.30;99.90
16136;DHT22;8173;48.354;9.248;2023-07-13T06:14:24;20.30;99.90
16136;DHT22;8173;48.354;9.248;2023-07-13T06:16:51;20.40;99.90
16136;DHT22;8173;48.354;9.248;2023-07-13T06:19:18;20.00;99.90
16136;DHT22;8173;48.354;9.248;2023-07-13T06:21:45;19.20;99.90
16136;DHT22;8173;48.354;9.248;2023-07-13T06:24:11;18.70;99.90
16136;DHT22;8173;48.354;9.248;2023-07-13T06:26:38;18.40;99.90
16136;DHT22;8173;48.354;9.248;2023-07-13T06:29:05;18.40;99.90
16136;DHT22;8173;48.354;9.248;2023-07-13T06:31:33;18.20;99.90
16136;DHT22;8173;48.354;9.248;2023-07-13T06:33:59;19.10;99.90
16136;DHT22;8173;48.354;9.248;2023-07-13T06:36:26;20.60;99.90
16136;DHT22;8173;48.354;9.248;2023-07-13T06:38:53;21.50;99.90
16136;DHT22;8173;48.354;9.248;2023-07-13T06:41:20;21.30;99.90
16136;DHT22;8173;48.354;9.248;2023-07-13T06:43:47;20.70;99.90
16136;DHT22;8173;48.354;9.248;2023-07-13T06:46:14;20.10;99.90
16136;DHT22;8173;48.354;9.248;2023-07-13T06:48:42;20.10;99.90
16136;DHT22;8173;48.354;9.248;2023-07-13T06:51:09;20.20;99.90
16136;DHT22;8173;48.354;9.248;2023-07-13T06:53:35;20.20;99.90
16136;DHT22;8173;48.354;9.248;2023-07-13T06:56:02;19.90;99.90
16136;DHT22;8173;48.354;9.248;2023-07-13T06:58:29;19.50;99.90
16136;DHT22;8173;48.354;9.248;2023-07-13T07:00:56;19.80;99.90
16136;DHT22;8173;48.354;9.248;2023-07-13T07:03:23;20.50;99.90
16136;DHT22;8173;48.354;9.248;2023-07-13T07:05:51;21.00;99.90
16136;DHT22;8173;48.354;9.248;2023-07-13T07:08:17;21.60;99.90
16136;DHT22;8173;48.354;9.248;2023-07-13T07:10:44;22.10;99.90
16136;DHT22;8173;48.354;9.248;2023-07-13T07:13:12;22.50;99.90
16136;DHT22;8173;48.354;9.248;2023-07-13T07:15:38;22.70;99.90
16136;DHT22;8173;48.354;9.248;2023-07-13T07:18:05;23.30;99.90
16136;DHT22;8173;48.354;9.248;2023-07-13T07:20:32;23.50;99.90
16136;DHT22;8173;48.354;9.248;2023-07-13T07:23:00;23.20;99.90
16136;DHT22;8173;48.354;9.248;2023-07-13T07:25:27;23.00;99.90
16136;DHT22;8173;48.354;9.248;2023-07-13T07:27:57;22.30;99.90
16136;DHT22;8173;48.354;9.248;2023-07-13T07:30:24;22.10;99.90
16136;DHT22;8173;48.354;9.248;2023-07-13T07:32:50;21.80;99.90
16136;DHT22;8173;48.354;9.248;2023-07-13T07:35:17;22.10;99.90
16136;DHT22;8173;48.354;9.248;2023-07-13T07:37:44;22.60;99.90
16136;DHT22;8173;48.354;9.248;2023-07-13T07:40:12;22.70;99.90
16136;DHT22;8173;48.354;9.248;2023-07-13T07:42:38;22.20;99.90
16136;DHT22;8173;48.354;9.248;2023-07-13T07:45:06;22.10;99.90
16136;DHT22;8173;48.354;9.248;2023-07-13T07:47:33;22.10;99.90
16136;DHT22;8173;48.354;9.248;2023-07-13T07:49:59;22.70;99.90
16136;DHT22;8173;48.354;9.248;2023-07-13T07:52:26;22.50;99.90
16136;DHT22;8173;48.354;9.248;2023-07-13T07:54:53;22.60;99.90
16136;DHT22;8173;48.354;9.248;2023-07-13T07:57:21;23.40;99.90
16136;DHT22;8173;48.354;9.248;2023-07-13T07:59:48;23.90;99.90
16136;DHT22;8173;48.354;9.248;2023-07-13T08:02:14;24.30;99.90
16136;DHT22;8173;48.354;9.248;2023-07-13T08:04:41;24.80;99.90
16136;DHT22;8173;48.354;9.248;2023-07-13T08:07:09;25.20;99.90
16136;DHT22;8173;48.354;9.248;2023-07-13T08:09:35;25.10;99.90
16136;DHT22;8173;48.354;9.248;2023-07-13T08:12:03;24.30;99.90
16136;DHT22;8173;48.354;9.248;2023-07-13T08:14:31;23.60;99.90
16136;DHT22;8173;48.354;9.248;2023-07-13T08:16:57;23.30;99.90
16136;DHT22;8173;48.354;9.248;2023-07-13T08:19:24;23.50;99.90
16136;DHT22;8173;48.354;9.248;2023-07-13T08:21:51;23.20;99.90
16136;DHT22;8173;48.354;9.248;2023-07-13T08:24:18;23.20;99.90
16136;DHT22;8173;48.354;9.248;2023-07-13T08:26:44;23.60;99.90
16136;DHT22;8173;48.354;9.248;2023-07-13T08:29:12;23.10;99.90
16136;DHT22;8173;48.354;9.248;2023-07-13T08:31:40;22.30;99.90
16136;DHT22;8173;48.354;9.248;2023-07-13T08:34:06;22.10;99.90
16136;DHT22;8173;48.354;9.248;2023-07-13T08:36:33;22.90;99.90
16136;DHT22;8173;48.354;9.248;2023-07-13T08:39:00;24.10;99.90
16136;DHT22;8173;48.354;9.248;2023-07-13T08:41:27;25.00;99.90
16136;DHT22;8173;48.354;9.248;2023-07-13T08:43:58;25.50;99.90
16136;DHT22;8173;48.354;9.248;2023-07-13T08:46:28;25.10;99.90
16136;DHT22;8173;48.354;9.248;2023-07-13T08:48:59;25.00;99.90
16136;DHT22;8173;48.354;9.248;2023-07-13T08:51:36;23.70;99.90
16136;DHT22;8173;48.354;9.248;2023-07-13T08:54:18;23.20;99.90
16136;DHT22;8173;48.354;9.248;2023-07-13T08:56:46;23.90;99.90
16136;DHT22;8173;48.354;9.248;2023-07-13T08:59:15;24.50;99.90
16136;DHT22;8173;48.354;9.248;2023-07-13T09:01:56;24.70;99.90
16136;DHT22;8173;48.354;9.248;2023-07-13T09:04:30;24.50;99.90
16136;DHT22;8173;48.354;9.248;2023-07-13T09:07:04;24.60;99.90
16136;DHT22;8173;48.354;9.248;2023-07-13T09:09:41;25.40;99.90
16136;DHT22;8173;48.354;9.248;2023-07-13T09:12:14;25.90;99.90
16136;DHT22;8173;48.354;9.248;2023-07-13T09:14:45;25.90;97.90
16136;DHT22;8173;48.354;9.248;2023-07-13T09:17:17;25.30;98.80
16136;DHT22;8173;48.354;9.248;2023-07-13T09:19:51;24.80;96.10
16136;DHT22;8173;48.354;9.248;2023-07-13T09:22:20;24.90;95.60
16136;DHT22;8173;48.354;9.248;2023-07-13T09:24:57;24.80;95.60
16136;DHT22;8173;48.354;9.248;2023-07-13T09:27:30;25.30;96.00
16136;DHT22;8173;48.354;9.248;2023-07-13T09:30:11;25.30;96.60
16136;DHT22;8173;48.354;9.248;2023-07-13T09:32:48;25.60;96.30
16136;DHT22;8173;48.354;9.248;2023-07-13T09:35:21;25.70;97.20
16136;DHT22;8173;48.354;9.248;2023-07-13T09:37:48;24.80;96.60
16136;DHT22;8173;48.354;9.248;2023-07-13T09:40:23;23.90;96.40
16136;DHT22;8173;48.354;9.248;2023-07-13T09:42:52;23.30;99.20
16136;DHT22;8173;48.354;9.248;2023-07-13T09:45:27;23.00;99.90
16136;DHT22;8173;48.354;9.248;2023-07-13T09:47:59;23.30;99.90
16136;DHT22;8173;48.354;9.248;2023-07-13T09:50:27;23.10;99.90
16136;DHT22;8173;48.354;9.248;2023-07-13T09:52:54;22.80;99.90
16136;DHT22;8173;48.354;9.248;2023-07-13T09:55:26;22.50;99.90
16136;DHT22;8173;48.354;9.248;2023-07-13T09:57:53;23.10;99.90
16136;DHT22;8173;48.354;9.248;2023-07-13T10:00:25;24.20;99.90
16136;DHT22;8173;48.354;9.248;2023-07-13T10:03:03;25.30;99.90
16136;DHT22;8173;48.354;9.248;2023-07-13T10:05:39;26.10;99.90
16136;DHT22;8173;48.354;9.248;2023-07-13T10:08:16;25.80;96.90
16136;DHT22;8173;48.354;9.248;2023-07-13T10:10:44;25.80;99.90
16136;DHT22;8173;48.354;9.248;2023-07-13T10:13:26;24.30;99.90
16136;DHT22;8173;48.354;9.248;2023-07-13T10:15:54;23.60;99.90
16136;DHT22;8173;48.354;9.248;2023-07-13T10:18:22;23.20;99.90
16136;DHT22;8173;48.354;9.248;2023-07-13T10:20:54;22.70;99.90
16136;DHT22;8173;48.354;9.248;2023-07-13T10:23:30;23.10;99.90
16136;DHT22;8173;48.354;9.248;2023-07-13T10:25:59;23.70;99.90
16136;DHT22;8173;48.354;9.248;2023-07-13T10:28:30;24.70;99.90
16136;DHT22;8173;48.354;9.248;2023-07-13T10:30:59;25.00;99.90
16136;DHT22;8173;48.354;9.248;2023-07-13T10:33:27;25.10;99.70
16136;DHT22;8173;48.354;9.248;2023-07-13T10:36:11;25.30;99.90
16136;DHT22;8173;48.354;9.248;2023-07-13T10:38:39;25.30;97.80
16136;DHT22;8173;48.354;9.248;2023-07-13T10:41:10;25.20;99.00
16136;DHT22;8173;48.354;9.248;2023-07-13T10:43:41;25.50;98.40
16136;DHT22;8173;48.354;9.248;2023-07-13T10:46:11;25.80;99.90
16136;DHT22;8173;48.354;9.248;2023-07-13T10:48:40;26.20;92.00
16136;DHT22;8173;48.354;9.248;2023-07-13T10:51:10;26.00;94.50
16136;DHT22;8173;48.354;9.248;2023-07-13T10:53:38;25.50;94.00
16136;DHT22;8173;48.354;9.248;2023-07-13T10:56:15;25.60;95.50
16136;DHT22;8173;48.354;9.248;2023-07-13T10:58:45;25.30;94.50
16136;DHT22;8173;48.354;9.248;2023-07-13T11:01:14;25.40;92.40
16136;DHT22;8173;48.354;9.248;2023-07-13T11:03:49;25.70;92.60
16136;DHT22;8173;48.354;9.248;2023-07-13T11:06:30;25.30;93.50
16136;DHT22;8173;48.354;9.248;2023-07-13T11:09:17;25.50;94.30
16136;DHT22;8173;48.354;9.248;2023-07-13T11:11:44;25.90;93.80
16136;DHT22;8173;48.354;9.248;2023-07-13T11:14:30;26.20;94.40
16136;DHT22;8173;48.354;9.248;2023-07-13T11:16:57;26.30;90.90
16136;DHT22;8173;48.354;9.248;2023-07-13T11:19:41;26.30;92.30
16136;DHT22;8173;48.354;9.248;2023-07-13T11:22:21;26.30;92.30
16136;DHT22;8173;48.354;9.248;2023-07-13T11:24:51;25.80;92.10
16136;DHT22;8173;48.354;9.248;2023-07-13T11:27:27;25.40;91.70
16136;DHT22;8173;48.354;9.248;2023-07-13T11:33:15;24.00;95.60
16136;DHT22;8173;48.354;9.248;2023-07-13T11:35:47;23.80;95.00
16136;DHT22;8173;48.354;9.248;2023-07-13T11:38:19;24.00;96.20
16136;DHT22;8173;48.354;9.248;2023-07-13T11:40:48;24.00;95.40
16136;DHT22;8173;48.354;9.248;2023-07-13T11:43:16;24.10;94.20
16136;DHT22;8173;48.354;9.248;2023-07-13T11:45:44;24.00;93.40
16136;DHT22;8173;48.354;9.248;2023-07-13T11:48:22;23.10;93.60
16136;DHT22;8173;48.354;9.248;2023-07-13T11:50:54;23.20;96.30
16136;DHT22;8173;48.354;9.248;2023-07-13T11:53:26;24.10;95.00
16136;DHT22;8173;48.354;9.248;2023-07-13T11:55:53;24.30;96.20
16136;DHT22;8173;48.354;9.248;2023-07-13T11:58:23;24.00;96.80
16136;DHT22;8173;48.354;9.248;2023-07-13T12:00:51;24.10;94.40
16136;DHT22;8173;48.354;9.248;2023-07-13T12:03:21;24.20;94.20
16136;DHT22;8173;48.354;9.248;2023-07-13T12:05:57;24.50;97.10
16136;DHT22;8173;48.354;9.248;2023-07-13T12:08:26;24.70;95.80
16136;DHT22;8173;48.354;9.248;2023-07-13T12:11:00;24.80;98.10
16136;DHT22;8173;48.354;9.248;2023-07-13T12:13:35;24.80;97.80
16136;DHT22;8173;48.354;9.248;2023-07-13T12:16:07;24.80;96.90
16136;DHT22;8173;48.354;9.248;2023-07-13T12:18:37;25.00;98.70
16136;DHT22;8173;48.354;9.248;2023-07-13T12:21:04;25.10;94.90
16136;DHT22;8173;48.354;9.248;2023-07-13T12:23:35;24.80;97.70
16136;DHT22;8173;48.354;9.248;2023-07-13T12:26:03;24.90;96.80
16136;DHT22;8173;48.354;9.248;2023-07-13T12:28:33;25.10;98.40
16136;DHT22;8173;48.354;9.248;2023-07-13T12:31:01;25.30;98.00
16136;DHT22;8173;48.354;9.248;2023-07-13T12:33:30;25.60;94.50
16136;DHT22;8173;48.354;9.248;2023-07-13T12:36:00;25.00;91.40
16136;DHT22;8173;48.354;9.248;2023-07-13T12:38:27;24.70;94.20
16136;DHT22;8173;48.354;9.248;2023-07-13T12:40:56;24.70;95.50
16136;DHT22;8173;48.354;9.248;2023-07-13T12:43:24;24.50;96.10
16136;DHT22;8173;48.354;9.248;2023-07-13T12:45:57;24.20;93.20
16136;DHT22;8173;48.354;9.248;2023-07-13T12:48:25;23.70;93.60
16136;DHT22;8173;48.354;9.248;2023-07-13T12:50:53;23.60;96.10
16136;DHT22;8173;48.354;9.248;2023-07-13T12:53:22;23.20;95.00
16136;DHT22;8173;48.354;9.248;2023-07-13T12:55:53;22.80;96.40
16136;DHT22;8173;48.354;9.248;2023-07-13T12:58:27;23.20;99.00
16136;DHT22;8173;48.354;9.248;2023-07-13T13:00:56;23.90;96.70
16136;DHT22;8173;48.354;9.248;2023-07-13T13:03:26;24.70;96.10
16136;DHT22;8173;48.354;9.248;2023-07-13T13:05:59;25.40;96.40
16136;DHT22;8173;48.354;9.248;2023-07-13T13:08:28;25.70;91.80
16136;DHT22;8173;48.354;9.248;2023-07-13T13:10:55;25.90;93.10
16136;DHT22;8173;48.354;9.248;2023-07-13T13:13:23;26.30;91.80
16136;DHT22;8173;48.354;9.248;2023-07-13T13:15:50;26.50;88.30
16136;DHT22;8173;48.354;9.248;2023-07-13T13:18:18;25.80;88.00
16136;DHT22;8173;48.354;9.248;2023-07-13T13:20:46;25.60;88.80
16136;DHT22;8173;48.354;9.248;2023-07-13T13:23:13;25.30;90.50
16136;DHT22;8173;48.354;9.248;2023-07-13T13:25:41;25.10;89.40
16136;DHT22;8173;48.354;9.248;2023-07-13T13:28:13;24.30;90.40
16136;DHT22;8173;48.354;9.248;2023-07-13T13:30:43;24.20;92.90
16136;DHT22;8173;48.354;9.248;2023-07-13T13:33:11;24.90;93.30
16136;DHT22;8173;48.354;9.248;2023-07-13T13:35:39;25.20;90.50
16136;DHT22;8173;48.354;9.248;2023-07-13T13:38:11;25.00;88.50
16136;DHT22;8173;48.354;9.248;2023-07-13T13:40:38;24.80;92.40
16136;DHT22;8173;48.354;9.248;2023-07-13T13:43:14;25.30;93.20
16136;DHT22;8173;48.354;9.248;2023-07-13T13:45:44;26.00;90.10
16136;DHT22;8173;48.354;9.248;2023-07-13T13:48:15;26.70;90.00
16136;DHT22;8173;48.354;9.248;2023-07-13T13:50:42;26.50;85.00
16136;DHT22;8173;48.354;9.248;2023-07-13T13:53:10;25.30;88.00
16136;DHT22;8173;48.354;9.248;2023-07-13T13:55:38;25.50;88.00
16136;DHT22;8173;48.354;9.248;2023-07-13T13:58:07;25.70;89.00
16136;DHT22;8173;48.354;9.248;2023-07-13T14:00:34;25.20;85.70
16136;DHT22;8173;48.354;9.248;2023-07-13T14:03:03;24.80;85.40
16136;DHT22;8173;48.354;9.248;2023-07-13T14:05:31;24.80;86.40
16136;DHT22;8173;48.354;9.248;2023-07-13T14:07:58;24.60;89.80
16136;DHT22;8173;48.354;9.248;2023-07-13T14:10:25;24.90;82.10
16136;DHT22;8173;48.354;9.248;2023-07-13T14:12:54;24.80;86.10
16136;DHT22;8173;48.354;9.248;2023-07-13T14:15:24;24.40;86.90
16136;DHT22;8173;48.354;9.248;2023-07-13T14:17:51;23.60;91.30
16136;DHT22;8173;48.354;9.248;2023-07-13T14:20:21;23.60;92.20
16136;DHT22;8173;48.354;9.248;2023-07-13T14:22:49;23.80;94.70
16136;DHT22;8173;48.354;9.248;2023-07-13T14:25:18;24.00;92.40
16136;DHT22;8173;48.354;9.248;2023-07-13T14:27:45;23.90;90.20
16136;DHT22;8173;48.354;9.248;2023-07-13T14:30:14;24.20;90.90
16136;DHT22;8173;48.354;9.248;2023-07-13T14:32:41;24.70;91.50
16136;DHT22;8173;48.354;9.248;2023-07-13T14:35:10;25.20;90.10
16136;DHT22;8173;48.354;9.248;2023-07-13T14:37:38;25.70;86.50
16136;DHT22;8173;48.354;9.248;2023-07-13T14:40:13;25.00;83.40
16136;DHT22;8173;48.354;9.248;2023-07-13T14:42:40;24.90;88.00
16136;DHT22;8173;48.354;9.248;2023-07-13T14:45:13;25.20;83.40
16136;DHT22;8173;48.354;9.248;2023-07-13T14:47:40;25.40;88.20
16136;DHT22;8173;48.354;9.248;2023-07-13T14:50:13;25.20;90.00
16136;DHT22;8173;48.354;9.248;2023-07-13T14:52:42;25.40;87.70
16136;DHT22;8173;48.354;9.248;2023-07-13T14:55:11;25.00;82.60
16136;DHT22;8173;48.354;9.248;2023-07-13T14:57:38;24.50;84.40
16136;DHT22;8173;48.354;9.248;2023-07-13T15:00:12;24.50;84.80
16136;DHT22;8173;48.354;9.248;2023-07-13T15:02:39;24.30;83.40
16136;DHT22;8173;48.354;9.248;2023-07-13T15:05:13;24.30;84.00
16136;DHT22;8173;48.354;9.248;2023-07-13T15:07:41;24.30;80.40
16136;DHT22;8173;48.354;9.248;2023-07-13T15:10:16;24.30;84.90
16136;DHT22;8173;48.354;9.248;2023-07-13T15:12:43;24.60;83.30
16136;DHT22;8173;48.354;9.248;2023-07-13T15:15:10;24.60;80.60
16136;DHT22;8173;48.354;9.248;2023-07-13T15:17:39;24.60;81.80
16136;DHT22;8173;48.354;9.248;2023-07-13T15:20:17;24.80;81.20
16136;DHT22;8173;48.354;9.248;2023-07-13T15:22:45;24.40;82.10
16136;DHT22;8173;48.354;9.248;2023-07-13T15:25:16;23.80;84.80
16136;DHT22;8173;48.354;9.248;2023-07-13T15:27:44;23.60;83.70
16136;DHT22;8173;48.354;9.248;2023-07-13T15:30:12;23.90;85.10
16136;DHT22;8173;48.354;9.248;2023-07-13T15:32:39;24.40;84.70
16136;DHT22;8173;48.354;9.248;2023-07-13T15:35:13;24.80;83.10
16136;DHT22;8173;48.354;9.248;2023-07-13T15:37:41;25.10;84.50
16136;DHT22;8173;48.354;9.248;2023-07-13T15:40:10;25.10;86.00
16136;DHT22;8173;48.354;9.248;2023-07-13T15:42:38;24.60;86.70
16136;DHT22;8173;48.354;9.248;2023-07-13T15:45:15;24.30;83.30
16136;DHT22;8173;48.354;9.248;2023-07-13T15:47:43;24.40;83.30
16136;DHT22;8173;48.354;9.248;2023-07-13T15:50:13;24.30;83.70
16136;DHT22;8173;48.354;9.248;2023-07-13T15:52:40;23.70;83.40
16136;DHT22;8173;48.354;9.248;2023-07-13T15:55:10;23.40;85.50
16136;DHT22;8173;48.354;9.248;2023-07-13T15:57:38;23.20;88.50